sensor_id;sensor_type;location;lat;lon;timestamp;P1;durP1;ratioP1;P2;durP2;ratioP2
59960;SDS011;55902;-37.980;-63.602;2022-10-16T00:01:28;5.68;;;2.20;;
59960;SDS011;55902;-37.980;-63.602;2022-10-16T00:03:57;9.55;;;5.35;;
59960;SDS011;55902;-37.980;-63.602;2022-10-16T00:06:25;12.32;;;6.00;;
59960;SDS011;55902;-37.980;-63.602;2022-10-16T00:08:57;6.45;;;2.65;;
59960;SDS011;55902;-37.980;-63.602;2022-10-16T00:11:25;5.40;;;1.80;;
59960;SDS011;55902;-37.980;-63.602;2022-10-16T00:13:55;8.90;;;1.92;;
59960;SDS011;55902;-37.980;-63.602;2022-10-16T00:16:24;6.55;;;2.00;;
59960;SDS011;55902;-37.980;-63.602;2022-10-16T00:18:52;8.13;;;2.47;;
59960;SDS011;55902;-37.980;-63.602;2022-10-16T00:21:20;8.77;;;2.10;;
59960;SDS011;55902;-37.980;-63.602;2022-10-16T00:24:05;4.40;;;1.98;;
59960;SDS011;55902;-37.980;-63.602;2022-10-16T00:26:36;7.10;;;1.95;;
59960;SDS011;55902;-37.980;-63.602;2022-10-16T00:29:04;9.35;;;2.60;;
59960;SDS011;55902;-37.980;-63.602;2022-10-16T00:31:32;8.15;;;2.72;;
59960;SDS011;55902;-37.980;-63.602;2022-10-16T00:33:59;4.53;;;1.90;;
59960;SDS011;55902;-37.980;-63.602;2022-10-16T00:36:26;5.45;;;2.17;;
59960;SDS011;55902;-37.980;-63.602;2022-10-16T00:38:54;4.32;;;1.70;;
59960;SDS011;55902;-37.980;-63.602;2022-10-16T00:41:23;8.55;;;1.88;;
59960;SDS011;55902;-37.980;-63.602;2022-10-16T00:43:52;7.25;;;1.80;;
59960;SDS011;55902;-37.980;-63.602;2022-10-16T00:46:24;5.30;;;1.50;;
59960;SDS011;55902;-37.980;-63.602;2022-10-16T00:49:09;6.00;;;1.67;;
59960;SDS011;55902;-37.980;-63.602;2022-10-16T00:51:37;3.33;;;1.30;;
59960;SDS011;55902;-37.980;-63.602;2022-10-16T00:54:27;4.30;;;1.73;;
59960;SDS011;55902;-37.980;-63.602;2022-10-16T00:56:57;5.20;;;2.00;;
59960;SDS011;55902;-37.980;-63.602;2022-10-16T00:59:33;4.45;;;1.55;;
59960;SDS011;55902;-37.980;-63.602;2022-10-16T01:02:04;8.13;;;1.60;;
59960;SDS011;55902;-37.980;-63.602;2022-10-16T01:04:34;5.10;;;1.67;;
59960;SDS011;55902;-37.980;-63.602;2022-10-16T01:18:21;5.32;;;1.90;;
59960;SDS011;55902;-37.980;-63.602;2022-10-16T01:21:06;6.63;;;2.25;;
59960;SDS011;55902;-37.980;-63.602;2022-10-16T01:35:02;3.53;;;2.03;;
59960;SDS011;55902;-37.980;-63.602;2022-10-16T01:40:11;5.47;;;1.80;;
59960;SDS011;55902;-37.980;-63.602;2022-10-16T01:42:41;5.13;;;1.65;;
59960;SDS011;55902;-37.980;-63.602;2022-10-16T01:45:13;3.42;;;1.65;;
59960;SDS011;55902;-37.980;-63.602;2022-10-16T01:47:43;6.05;;;1.70;;
59960;SDS011;55902;-37.980;-63.602;2022-10-16T01:50:11;6.63;;;1.60;;
59960;SDS011;55902;-37.980;-63.602;2022-10-16T01:52:42;5.18;;;1.50;;
59960;SDS011;55902;-37.980;-63.602;2022-10-16T01:55:12;4.78;;;1.40;;
59960;SDS011;55902;-37.980;-63.602;2022-10-16T01:57:44;4.57;;;1.60;;
59960;SDS011;55902;-37.980;-63.602;2022-10-16T02:00:15;3.40;;;1.50;;
59960;SDS011;55902;-37.980;-63.602;2022-10-16T02:02:45;4.07;;;1.50;;
59960;SDS011;55902;-37.980;-63.602;2022-10-16T02:05:16;5.70;;;1.90;;
59960;SDS011;55902;-37.980;-63.602;2022-10-16T02:07:44;4.32;;;2.10;;
59960;SDS011;55902;-37.980;-63.602;2022-10-16T02:10:11;4.75;;;1.90;;
59960;SDS011;55902;-37.980;-63.602;2022-10-16T02:12:38;4.35;;;1.73;;
59960;SDS011;55902;-37.980;-63.602;2022-10-16T02:15:10;5.70;;;1.90;;
59960;SDS011;55902;-37.980;-63.602;2022-10-16T02:17:37;5.30;;;1.80;;
59960;SDS011;55902;-37.980;-63.602;2022-10-16T02:20:04;3.78;;;1.48;;
59960;SDS011;55902;-37.980;-63.602;2022-10-16T02:22:49;6.57;;;1.60;;
59960;SDS011;55902;-37.980;-63.602;2022-10-16T02:25:19;6.53;;;1.50;;
59960;SDS011;55902;-37.980;-63.602;2022-10-16T02:28:03;2.92;;;1.40;;
59960;SDS011;55902;-37.980;-63.602;2022-10-16T02:30:39;4.10;;;1.38;;
59960;SDS011;55902;-37.980;-63.602;2022-10-16T02:33:12;4.20;;;1.50;;
59960;SDS011;55902;-37.980;-63.602;2022-10-16T02:35:41;3.72;;;1.45;;
59960;SDS011;55902;-37.980;-63.602;2022-10-16T02:38:10;3.67;;;1.40;;
59960;SDS011;55902;-37.980;-63.602;2022-10-16T02:40:38;5.93;;;1.70;;
59960;SDS011;55902;-37.980;-63.602;2022-10-16T02:43:06;3.55;;;1.50;;
59960;SDS011;55902;-37.980;-63.602;2022-10-16T02:45:33;3.00;;;1.63;;
59960;SDS011;55902;-37.980;-63.602;2022-10-16T02:48:00;5.50;;;1.60;;
59960;SDS011;55902;-37.980;-63.602;2022-10-16T02:50:27;3.35;;;1.50;;
59960;SDS011;55902;-37.980;-63.602;2022-10-16T02:52:54;3.63;;;1.60;;
59960;SDS011;55902;-37.980;-63.602;2022-10-16T02:55:21;6.82;;;1.50;;
59960;SDS011;55902;-37.980;-63.602;2022-10-16T02:57:47;5.45;;;1.40;;
59960;SDS011;55902;-37.980;-63.602;2022-10-16T03:00:15;3.25;;;1.40;;
59960;SDS011;55902;-37.980;-63.602;2022-10-16T03:02:43;9.70;;;1.75;;
59960;SDS011;55902;-37.980;-63.602;2022-10-16T03:05:10;5.05;;;1.83;;
59960;SDS011;55902;-37.980;-63.602;2022-10-16T03:07:37;3.75;;;1.45;;
59960;SDS011;55902;-37.980;-63.602;2022-10-16T03:10:04;7.80;;;1.80;;
59960;SDS011;55902;-37.980;-63.602;2022-10-16T03:12:31;4.93;;;1.75;;
59960;SDS011;55902;-37.980;-63.602;2022-10-16T03:14:58;5.47;;;1.80;;
59960;SDS011;55902;-37.980;-63.602;2022-10-16T03:17:25;4.22;;;2.15;;
59960;SDS011;55902;-37.980;-63.602;2022-10-16T03:19:52;4.63;;;1.65;;
59960;SDS011;55902;-37.980;-63.602;2022-10-16T03:22:19;6.28;;;1.52;;
59960;SDS011;55902;-37.980;-63.602;2022-10-16T03:24:45;5.38;;;1.90;;
59960;SDS011;55902;-37.980;-63.602;2022-10-16T03:27:12;7.25;;;2.90;;
59960;SDS011;55902;-37.980;-63.602;2022-10-16T03:29:39;10.55;;;3.25;;
59960;SDS011;55902;-37.980;-63.602;2022-10-16T03:32:06;12.32;;;4.30;;
59960;SDS011;55902;-37.980;-63.602;2022-10-16T03:34:36;12.20;;;3.90;;
59960;SDS011;55902;-37.980;-63.602;2022-10-16T03:37:03;13.23;;;3.75;;
59960;SDS011;55902;-37.980;-63.602;2022-10-16T03:39:30;7.20;;;2.95;;
59960;SDS011;55902;-37.980;-63.602;2022-10-16T03:41:57;5.50;;;2.50;;
59960;SDS011;55902;-37.980;-63.602;2022-10-16T03:44:23;8.13;;;2.50;;
59960;SDS011;55902;-37.980;-63.602;2022-10-16T03:46:50;4.68;;;1.90;;
59960;SDS011;55902;-37.980;-63.602;2022-10-16T03:49:17;5.22;;;2.00;;
59960;SDS011;55902;-37.980;-63.602;2022-10-16T03:51:44;4.80;;;1.80;;
59960;SDS011;55902;-37.980;-63.602;2022-10-16T03:54:11;5.18;;;1.80;;
59960;SDS011;55902;-37.980;-63.602;2022-10-16T03:56:38;4.68;;;1.70;;
59960;SDS011;55902;-37.980;-63.602;2022-10-16T03:59:05;4.40;;;1.52;;
59960;SDS011;55902;-37.980;-63.602;2022-10-16T04:01:32;6.10;;;2.33;;
59960;SDS011;55902;-37.980;-63.602;2022-10-16T04:03:59;7.70;;;2.40;;
59960;SDS011;55902;-37.980;-63.602;2022-10-16T04:06:26;8.05;;;2.35;;
59960;SDS011;55902;-37.980;-63.602;2022-10-16T04:08:52;7.93;;;2.50;;
59960;SDS011;55902;-37.980;-63.602;2022-10-16T04:11:19;4.07;;;2.08;;
59960;SDS011;55902;-37.980;-63.602;2022-10-16T04:13:46;5.63;;;1.63;;
59960;SDS011;55902;-37.980;-63.602;2022-10-16T04:16:13;6.57;;;1.92;;
59960;SDS011;55902;-37.980;-63.602;2022-10-16T04:18:40;3.67;;;1.58;;
59960;SDS011;55902;-37.980;-63.602;2022-10-16T04:21:07;8.50;;;1.90;;
59960;SDS011;55902;-37.980;-63.602;2022-10-16T04:23:34;6.45;;;2.00;;
59960;SDS011;55902;-37.980;-63.602;2022-10-16T04:26:01;2.55;;;1.73;;
59960;SDS011;55902;-37.980;-63.602;2022-10-16T04:28:27;3.42;;;1.85;;
59960;SDS011;55902;-37.980;-63.602;2022-10-16T04:30:54;7.10;;;3.00;;
59960;SDS011;55902;-37.980;-63.602;2022-10-16T04:33:21;7.50;;;3.20;;
59960;SDS011;55902;-37.980;-63.602;2022-10-16T04:35:48;7.78;;;3.17;;
59960;SDS011;55902;-37.980;-63.602;2022-10-16T04:48:27;11.95;;;3.65;;
59960;SDS011;55902;-37.980;-63.602;2022-10-16T04:50:54;6.95;;;2.70;;
59960;SDS011;55902;-37.980;-63.602;2022-10-16T04:53:21;6.85;;;2.53;;
59960;SDS011;55902;-37.980;-63.602;2022-10-16T04:55:49;5.03;;;2.40;;
59960;SDS011;55902;-37.980;-63.602;2022-10-16T04:58:16;5.85;;;2.78;;
59960;SDS011;55902;-37.980;-63.602;2022-10-16T05:00:44;10.02;;;2.85;;
59960;SDS011;55902;-37.980;-63.602;2022-10-16T05:03:12;12.25;;;3.75;;
59960;SDS011;55902;-37.980;-63.602;2022-10-16T05:05:42;16.42;;;4.75;;
59960;SDS011;55902;-37.980;-63.602;2022-10-16T05:08:11;15.75;;;4.75;;
59960;SDS011;55902;-37.980;-63.602;2022-10-16T05:10:42;15.20;;;4.82;;
59960;SDS011;55902;-37.980;-63.602;2022-10-16T05:13:10;14.27;;;5.25;;
59960;SDS011;55902;-37.980;-63.602;2022-10-16T05:15:37;17.33;;;5.47;;
59960;SDS011;55902;-37.980;-63.602;2022-10-16T05:18:04;16.02;;;4.80;;
59960;SDS011;55902;-37.980;-63.602;2022-10-16T05:20:31;13.25;;;4.18;;
59960;SDS011;55902;-37.980;-63.602;2022-10-16T05:22:58;14.63;;;4.07;;
59960;SDS011;55902;-37.980;-63.602;2022-10-16T05:25:25;13.18;;;4.85;;
59960;SDS011;55902;-37.980;-63.602;2022-10-16T05:27:52;13.60;;;4.03;;
59960;SDS011;55902;-37.980;-63.602;2022-10-16T05:30:18;10.50;;;3.47;;
59960;SDS011;55902;-37.980;-63.602;2022-10-16T05:32:46;7.18;;;2.83;;
59960;SDS011;55902;-37.980;-63.602;2022-10-16T05:35:14;8.20;;;2.85;;
59960;SDS011;55902;-37.980;-63.602;2022-10-16T05:37:41;7.05;;;2.95;;
59960;SDS011;55902;-37.980;-63.602;2022-10-16T05:40:09;9.80;;;3.10;;
59960;SDS011;55902;-37.980;-63.602;2022-10-16T05:42:37;15.23;;;3.63;;
59960;SDS011;55902;-37.980;-63.602;2022-10-16T05:45:05;9.38;;;3.47;;
59960;SDS011;55902;-37.980;-63.602;2022-10-16T05:47:34;10.32;;;2.90;;
59960;SDS011;55902;-37.980;-63.602;2022-10-16T05:50:00;7.18;;;2.50;;
59960;SDS011;55902;-37.980;-63.602;2022-10-16T05:52:29;5.60;;;2.22;;
59960;SDS011;55902;-37.980;-63.602;2022-10-16T05:54:56;5.80;;;2.42;;
59960;SDS011;55902;-37.980;-63.602;2022-10-16T05:57:23;7.60;;;2.42;;
59960;SDS011;55902;-37.980;-63.602;2022-10-16T05:59:49;7.55;;;2.70;;
59960;SDS011;55902;-37.980;-63.602;2022-10-16T06:02:16;6.43;;;2.85;;
59960;SDS011;55902;-37.980;-63.602;2022-10-16T06:04:43;8.25;;;3.05;;
59960;SDS011;55902;-37.980;-63.602;2022-10-16T06:07:10;11.07;;;3.47;;
59960;SDS011;55902;-37.980;-63.602;2022-10-16T06:09:37;9.95;;;2.60;;
59960;SDS011;55902;-37.980;-63.602;2022-10-16T06:12:04;5.47;;;2.70;;
59960;SDS011;55902;-37.980;-63.602;2022-10-16T06:14:31;5.10;;;2.05;;
59960;SDS011;55902;-37.980;-63.602;2022-10-16T06:16:58;6.68;;;2.15;;
59960;SDS011;55902;-37.980;-63.602;2022-10-16T06:19:25;4.43;;;1.90;;
59960;SDS011;55902;-37.980;-63.602;2022-10-16T06:21:52;3.42;;;2.00;;
59960;SDS011;55902;-37.980;-63.602;2022-10-16T06:24:18;5.25;;;2.70;;
59960;SDS011;55902;-37.980;-63.602;2022-10-16T06:26:45;7.53;;;3.60;;
59960;SDS011;55902;-37.980;-63.602;2022-10-16T06:29:12;4.93;;;2.42;;
59960;SDS011;55902;-37.980;-63.602;2022-10-16T06:31:39;6.75;;;2.20;;
59960;SDS011;55902;-37.980;-63.602;2022-10-16T06:34:08;6.70;;;2.22;;
59960;SDS011;55902;-37.980;-63.602;2022-10-16T06:36:37;4.28;;;1.90;;
59960;SDS011;55902;-37.980;-63.602;2022-10-16T06:39:04;6.20;;;2.65;;
59960;SDS011;55902;-37.980;-63.602;2022-10-16T06:41:32;5.28;;;1.95;;
59960;SDS011;55902;-37.980;-63.602;2022-10-16T06:44:00;6.38;;;2.00;;
59960;SDS011;55902;-37.980;-63.602;2022-10-16T06:46:30;3.88;;;2.08;;
59960;SDS011;55902;-37.980;-63.602;2022-10-16T06:48:57;6.72;;;2.20;;
59960;SDS011;55902;-37.980;-63.602;2022-10-16T06:51:26;7.82;;;2.10;;
59960;SDS011;55902;-37.980;-63.602;2022-10-16T06:53:54;7.18;;;2.50;;
59960;SDS011;55902;-37.980;-63.602;2022-10-16T06:56:26;4.38;;;2.10;;
59960;SDS011;55902;-37.980;-63.602;2022-10-16T06:58:55;5.05;;;2.00;;
59960;SDS011;55902;-37.980;-63.602;2022-10-16T07:01:22;4.00;;;2.10;;
59960;SDS011;55902;-37.980;-63.602;2022-10-16T07:03:50;4.63;;;2.10;;
59960;SDS011;55902;-37.980;-63.602;2022-10-16T07:06:19;5.25;;;2.17;;
59960;SDS011;55902;-37.980;-63.602;2022-10-16T07:08:47;7.13;;;2.20;;
59960;SDS011;55902;-37.980;-63.602;2022-10-16T07:11:15;4.50;;;2.08;;
59960;SDS011;55902;-37.980;-63.602;2022-10-16T07:13:44;7.03;;;2.40;;
59960;SDS011;55902;-37.980;-63.602;2022-10-16T07:16:16;5.90;;;2.33;;
59960;SDS011;55902;-37.980;-63.602;2022-10-16T07:18:44;3.92;;;2.35;;
59960;SDS011;55902;-37.980;-63.602;2022-10-16T07:21:17;6.57;;;2.30;;
59960;SDS011;55902;-37.980;-63.602;2022-10-16T07:23:55;4.32;;;2.92;;
59960;SDS011;55902;-37.980;-63.602;2022-10-16T07:26:24;6.97;;;2.40;;
59960;SDS011;55902;-37.980;-63.602;2022-10-16T07:28:52;5.22;;;2.33;;
59960;SDS011;55902;-37.980;-63.602;2022-10-16T07:31:20;5.60;;;2.22;;
59960;SDS011;55902;-37.980;-63.602;2022-10-16T07:33:48;6.88;;;2.90;;
59960;SDS011;55902;-37.980;-63.602;2022-10-16T07:36:16;8.98;;;3.63;;
59960;SDS011;55902;-37.980;-63.602;2022-10-16T07:38:44;5.88;;;2.95;;
59960;SDS011;55902;-37.980;-63.602;2022-10-16T07:41:13;6.60;;;2.70;;
59960;SDS011;55902;-37.980;-63.602;2022-10-16T07:43:48;7.53;;;2.47;;
59960;SDS011;55902;-37.980;-63.602;2022-10-16T07:48:46;5.60;;;2.85;;
59960;SDS011;55902;-37.980;-63.602;2022-10-16T07:51:14;9.95;;;3.80;;
59960;SDS011;55902;-37.980;-63.602;2022-10-16T07:53:43;8.98;;;4.15;;
59960;SDS011;55902;-37.980;-63.602;2022-10-16T07:56:10;6.47;;;2.65;;
59960;SDS011;55902;-37.980;-63.602;2022-10-16T07:58:38;9.63;;;2.80;;
59960;SDS011;55902;-37.980;-63.602;2022-10-16T08:01:09;5.18;;;2.38;;
59960;SDS011;55902;-37.980;-63.602;2022-10-16T08:03:40;6.85;;;2.28;;
59960;SDS011;55902;-37.980;-63.602;2022-10-16T08:06:15;6.25;;;2.97;;
59960;SDS011;55902;-37.980;-63.602;2022-10-16T08:08:42;9.60;;;3.50;;
59960;SDS011;55902;-37.980;-63.602;2022-10-16T08:11:09;10.35;;;3.70;;
59960;SDS011;55902;-37.980;-63.602;2022-10-16T08:13:36;15.75;;;4.45;;
59960;SDS011;55902;-37.980;-63.602;2022-10-16T08:16:03;9.80;;;3.55;;
59960;SDS011;55902;-37.980;-63.602;2022-10-16T08:18:37;9.95;;;3.33;;
59960;SDS011;55902;-37.980;-63.602;2022-10-16T08:21:05;8.20;;;3.25;;
59960;SDS011;55902;-37.980;-63.602;2022-10-16T08:23:33;7.97;;;3.40;;
59960;SDS011;55902;-37.980;-63.602;2022-10-16T08:26:05;15.57;;;4.15;;
59960;SDS011;55902;-37.980;-63.602;2022-10-16T08:28:33;7.80;;;3.42;;
59960;SDS011;55902;-37.980;-63.602;2022-10-16T08:31:07;9.65;;;3.03;;
59960;SDS011;55902;-37.980;-63.602;2022-10-16T08:33:40;8.80;;;3.03;;
59960;SDS011;55902;-37.980;-63.602;2022-10-16T08:36:08;6.78;;;2.40;;
59960;SDS011;55902;-37.980;-63.602;2022-10-16T08:38:37;5.07;;;2.35;;
59960;SDS011;55902;-37.980;-63.602;2022-10-16T08:46:21;3.60;;;2.60;;
59960;SDS011;55902;-37.980;-63.602;2022-10-16T08:49:00;7.70;;;3.55;;
59960;SDS011;55902;-37.980;-63.602;2022-10-16T08:51:30;7.10;;;2.60;;
59960;SDS011;55902;-37.980;-63.602;2022-10-16T08:54:06;3.53;;;2.58;;
59960;SDS011;55902;-37.980;-63.602;2022-10-16T08:56:45;5.75;;;2.85;;
59960;SDS011;55902;-37.980;-63.602;2022-10-16T08:59:12;7.15;;;3.00;;
59960;SDS011;55902;-37.980;-63.602;2022-10-16T09:01:44;10.70;;;3.28;;
59960;SDS011;55902;-37.980;-63.602;2022-10-16T09:09:32;7.13;;;3.10;;
59960;SDS011;55902;-37.980;-63.602;2022-10-16T09:12:13;6.32;;;3.10;;
59960;SDS011;55902;-37.980;-63.602;2022-10-16T09:15:13;8.20;;;3.30;;
59960;SDS011;55902;-37.980;-63.602;2022-10-16T09:17:58;9.27;;;4.18;;
59960;SDS011;55902;-37.980;-63.602;2022-10-16T09:20:34;12.45;;;4.45;;
59960;SDS011;55902;-37.980;-63.602;2022-10-16T09:23:16;13.00;;;4.20;;
59960;SDS011;55902;-37.980;-63.602;2022-10-16T09:25:51;7.95;;;3.90;;
59960;SDS011;55902;-37.980;-63.602;2022-10-16T09:28:19;7.18;;;3.33;;
59960;SDS011;55902;-37.980;-63.602;2022-10-16T09:30:47;7.78;;;3.67;;
59960;SDS011;55902;-37.980;-63.602;2022-10-16T09:33:17;5.82;;;3.10;;
59960;SDS011;55902;-37.980;-63.602;2022-10-16T09:35:51;5.25;;;3.00;;
59960;SDS011;55902;-37.980;-63.602;2022-10-16T09:38:30;6.85;;;3.30;;
59960;SDS011;55902;-37.980;-63.602;2022-10-16T09:41:03;6.75;;;3.22;;
59960;SDS011;55902;-37.980;-63.602;2022-10-16T09:43:53;12.73;;;4.28;;
59960;SDS011;55902;-37.980;-63.602;2022-10-16T09:46:32;11.70;;;4.32;;
59960;SDS011;55902;-37.980;-63.602;2022-10-16T09:49:03;10.40;;;4.18;;
59960;SDS011;55902;-37.980;-63.602;2022-10-16T09:51:32;10.30;;;4.40;;
59960;SDS011;55902;-37.980;-63.602;2022-10-16T09:56:36;15.13;;;4.63;;
59960;SDS011;55902;-37.980;-63.602;2022-10-16T09:59:14;12.02;;;5.20;;
59960;SDS011;55902;-37.980;-63.602;2022-10-16T10:04:12;6.43;;;3.63;;
59960;SDS011;55902;-37.980;-63.602;2022-10-16T10:06:44;8.13;;;3.30;;
59960;SDS011;55902;-37.980;-63.602;2022-10-16T10:09:19;6.50;;;3.05;;
59960;SDS011;55902;-37.980;-63.602;2022-10-16T10:12:02;6.30;;;3.00;;
59960;SDS011;55902;-37.980;-63.602;2022-10-16T10:17:18;4.60;;;3.10;;
59960;SDS011;55902;-37.980;-63.602;2022-10-16T10:19:48;10.10;;;3.15;;
59960;SDS011;55902;-37.980;-63.602;2022-10-16T10:27:38;9.90;;;3.45;;
59960;SDS011;55902;-37.980;-63.602;2022-10-16T10:38:53;6.90;;;3.80;;
59960;SDS011;55902;-37.980;-63.602;2022-10-16T10:49:48;6.00;;;3.00;;
59960;SDS011;55902;-37.980;-63.602;2022-10-16T11:00:28;6.88;;;3.40;;
59960;SDS011;55902;-37.980;-63.602;2022-10-16T11:08:17;6.78;;;3.30;;
59960;SDS011;55902;-37.980;-63.602;2022-10-16T11:13:58;8.38;;;3.20;;
59960;SDS011;55902;-37.980;-63.602;2022-10-16T11:24:45;5.47;;;3.60;;
59960;SDS011;55902;-37.980;-63.602;2022-10-16T11:27:31;7.43;;;3.53;;
59960;SDS011;55902;-37.980;-63.602;2022-10-16T11:30:19;7.45;;;3.80;;
59960;SDS011;55902;-37.980;-63.602;2022-10-16T11:33:02;6.40;;;3.50;;
59960;SDS011;55902;-37.980;-63.602;2022-10-16T11:38:15;7.18;;;3.10;;
59960;SDS011;55902;-37.980;-63.602;2022-10-16T11:40:50;7.00;;;2.90;;
59960;SDS011;55902;-37.980;-63.602;2022-10-16T11:43:32;4.63;;;2.92;;
59960;SDS011;55902;-37.980;-63.602;2022-10-16T11:46:24;5.30;;;2.97;;
59960;SDS011;55902;-37.980;-63.602;2022-10-16T11:54:32;6.95;;;2.80;;
59960;SDS011;55902;-37.980;-63.602;2022-10-16T11:57:02;6.07;;;2.85;;
59960;SDS011;55902;-37.980;-63.602;2022-10-16T11:59:49;7.25;;;3.22;;
59960;SDS011;55902;-37.980;-63.602;2022-10-16T12:03:33;9.60;;;2.88;;
59960;SDS011;55902;-37.980;-63.602;2022-10-16T12:08:36;8.73;;;3.08;;
59960;SDS011;55902;-37.980;-63.602;2022-10-16T12:11:07;6.97;;;2.92;;
59960;SDS011;55902;-37.980;-63.602;2022-10-16T12:13:46;8.02;;;2.75;;
59960;SDS011;55902;-37.980;-63.602;2022-10-16T12:18:41;5.00;;;2.92;;
59960;SDS011;55902;-37.980;-63.602;2022-10-16T12:21:10;6.70;;;2.70;;
59960;SDS011;55902;-37.980;-63.602;2022-10-16T12:26:13;4.93;;;2.50;;
59960;SDS011;55902;-37.980;-63.602;2022-10-16T12:28:49;5.10;;;2.53;;
59960;SDS011;55902;-37.980;-63.602;2022-10-16T12:31:17;6.78;;;2.72;;
59960;SDS011;55902;-37.980;-63.602;2022-10-16T12:36:28;4.88;;;2.83;;
59960;SDS011;55902;-37.980;-63.602;2022-10-16T12:39:00;7.63;;;2.97;;
59960;SDS011;55902;-37.980;-63.602;2022-10-16T12:41:32;4.90;;;2.40;;
59960;SDS011;55902;-37.980;-63.602;2022-10-16T12:44:00;9.60;;;2.50;;
59960;SDS011;55902;-37.980;-63.602;2022-10-16T12:51:41;5.95;;;2.22;;
59960;SDS011;55902;-37.980;-63.602;2022-10-16T12:54:15;7.55;;;2.60;;
59960;SDS011;55902;-37.980;-63.602;2022-10-16T13:05:08;8.02;;;2.60;;
59960;SDS011;55902;-37.980;-63.602;2022-10-16T13:07:54;4.80;;;3.00;;
59960;SDS011;55902;-37.980;-63.602;2022-10-16T13:18:41;5.28;;;2.40;;
59960;SDS011;55902;-37.980;-63.602;2022-10-16T13:29:31;6.00;;;2.50;;
59960;SDS011;55902;-37.980;-63.602;2022-10-16T13:31:59;5.07;;;2.47;;
59960;SDS011;55902;-37.980;-63.602;2022-10-16T13:34:32;4.77;;;2.47;;
59960;SDS011;55902;-37.980;-63.602;2022-10-16T13:37:16;6.70;;;3.03;;
59960;SDS011;55902;-37.980;-63.602;2022-10-16T13:39:48;6.00;;;2.90;;
59960;SDS011;55902;-37.980;-63.602;2022-10-16T13:42:26;6.78;;;3.20;;
59960;SDS011;55902;-37.980;-63.602;2022-10-16T13:44:54;4.03;;;2.28;;
59960;SDS011;55902;-37.980;-63.602;2022-10-16T13:47:26;5.90;;;3.20;;
59960;SDS011;55902;-37.980;-63.602;2022-10-16T13:50:01;7.85;;;3.03;;
59960;SDS011;55902;-37.980;-63.602;2022-10-16T13:52:37;4.70;;;2.17;;
59960;SDS011;55902;-37.980;-63.602;2022-10-16T13:55:16;6.72;;;3.00;;
59960;SDS011;55902;-37.980;-63.602;2022-10-16T13:57:44;5.82;;;2.60;;
59960;SDS011;55902;-37.980;-63.602;2022-10-16T14:00:21;8.10;;;3.17;;
59960;SDS011;55902;-37.980;-63.602;2022-10-16T14:02:56;7.93;;;2.75;;
59960;SDS011;55902;-37.980;-63.602;2022-10-16T14:05:32;6.32;;;2.40;;
59960;SDS011;55902;-37.980;-63.602;2022-10-16T14:08:00;5.63;;;2.05;;
59960;SDS011;55902;-37.980;-63.602;2022-10-16T14:10:28;8.00;;;2.53;;
59960;SDS011;55902;-37.980;-63.602;2022-10-16T14:12:58;6.03;;;2.90;;
59960;SDS011;55902;-37.980;-63.602;2022-10-16T14:15:27;8.77;;;3.05;;
59960;SDS011;55902;-37.980;-63.602;2022-10-16T14:18:00;6.57;;;2.55;;
59960;SDS011;55902;-37.980;-63.602;2022-10-16T14:20:29;6.90;;;3.20;;
59960;SDS011;55902;-37.980;-63.602;2022-10-16T14:23:03;6.18;;;2.70;;
59960;SDS011;55902;-37.980;-63.602;2022-10-16T14:25:44;4.10;;;3.08;;
59960;SDS011;55902;-37.980;-63.602;2022-10-16T14:30:56;4.60;;;2.10;;
59960;SDS011;55902;-37.980;-63.602;2022-10-16T14:33:30;5.25;;;2.63;;
59960;SDS011;55902;-37.980;-63.602;2022-10-16T14:39:02;5.13;;;3.00;;
59960;SDS011;55902;-37.980;-63.602;2022-10-16T14:41:32;7.90;;;4.00;;
59960;SDS011;55902;-37.980;-63.602;2022-10-16T14:44:09;5.60;;;2.80;;
59960;SDS011;55902;-37.980;-63.602;2022-10-16T14:46:38;5.70;;;3.17;;
59960;SDS011;55902;-37.980;-63.602;2022-10-16T14:51:37;5.45;;;3.00;;
59960;SDS011;55902;-37.980;-63.602;2022-10-16T14:54:10;7.65;;;2.30;;
59960;SDS011;55902;-37.980;-63.602;2022-10-16T14:56:56;4.72;;;2.53;;
59960;SDS011;55902;-37.980;-63.602;2022-10-16T14:59:37;8.80;;;2.95;;
59960;SDS011;55902;-37.980;-63.602;2022-10-16T15:05:07;6.60;;;2.20;;
59960;SDS011;55902;-37.980;-63.602;2022-10-16T15:07:39;7.18;;;3.38;;
59960;SDS011;55902;-37.980;-63.602;2022-10-16T15:10:08;6.10;;;3.00;;
59960;SDS011;55902;-37.980;-63.602;2022-10-16T15:12:39;7.90;;;4.70;;
59960;SDS011;55902;-37.980;-63.602;2022-10-16T15:18:06;6.60;;;2.75;;
59960;SDS011;55902;-37.980;-63.602;2022-10-16T15:20:36;9.07;;;5.53;;
59960;SDS011;55902;-37.980;-63.602;2022-10-16T15:23:05;7.80;;;3.35;;
59960;SDS011;55902;-37.980;-63.602;2022-10-16T15:25:41;6.97;;;4.32;;
59960;SDS011;55902;-37.980;-63.602;2022-10-16T15:28:11;6.15;;;2.60;;
59960;SDS011;55902;-37.980;-63.602;2022-10-16T15:30:39;5.50;;;2.08;;
59960;SDS011;55902;-37.980;-63.602;2022-10-16T15:33:10;5.97;;;3.17;;
59960;SDS011;55902;-37.980;-63.602;2022-10-16T15:35:42;8.40;;;3.70;;
59960;SDS011;55902;-37.980;-63.602;2022-10-16T15:38:12;11.77;;;3.97;;
59960;SDS011;55902;-37.980;-63.602;2022-10-16T15:40:40;5.45;;;2.95;;
59960;SDS011;55902;-37.980;-63.602;2022-10-16T15:43:07;8.05;;;3.83;;
59960;SDS011;55902;-37.980;-63.602;2022-10-16T15:45:34;6.95;;;3.75;;
59960;SDS011;55902;-37.980;-63.602;2022-10-16T15:48:01;5.88;;;3.10;;
59960;SDS011;55902;-37.980;-63.602;2022-10-16T15:50:29;4.95;;;2.30;;
59960;SDS011;55902;-37.980;-63.602;2022-10-16T15:52:57;10.35;;;6.38;;
59960;SDS011;55902;-37.980;-63.602;2022-10-16T15:55:24;8.98;;;5.07;;
59960;SDS011;55902;-37.980;-63.602;2022-10-16T15:57:51;7.20;;;3.25;;
59960;SDS011;55902;-37.980;-63.602;2022-10-16T16:00:18;5.93;;;2.30;;
59960;SDS011;55902;-37.980;-63.602;2022-10-16T16:02:54;6.63;;;2.00;;
59960;SDS011;55902;-37.980;-63.602;2022-10-16T16:05:21;6.03;;;2.00;;
59960;SDS011;55902;-37.980;-63.602;2022-10-16T16:07:48;7.60;;;3.40;;
59960;SDS011;55902;-37.980;-63.602;2022-10-16T16:10:16;6.78;;;2.67;;
59960;SDS011;55902;-37.980;-63.602;2022-10-16T16:12:45;6.53;;;3.20;;
59960;SDS011;55902;-37.980;-63.602;2022-10-16T16:15:17;7.38;;;3.03;;
59960;SDS011;55902;-37.980;-63.602;2022-10-16T16:17:45;3.15;;;1.80;;
59960;SDS011;55902;-37.980;-63.602;2022-10-16T16:20:12;3.60;;;1.50;;
59960;SDS011;55902;-37.980;-63.602;2022-10-16T16:22:39;11.80;;;7.25;;
59960;SDS011;55902;-37.980;-63.602;2022-10-16T16:25:07;10.38;;;5.10;;
59960;SDS011;55902;-37.980;-63.602;2022-10-16T16:27:34;7.75;;;3.72;;
59960;SDS011;55902;-37.980;-63.602;2022-10-16T16:30:04;9.57;;;3.42;;
59960;SDS011;55902;-37.980;-63.602;2022-10-16T16:32:33;9.38;;;3.28;;
59960;SDS011;55902;-37.980;-63.602;2022-10-16T16:35:01;6.68;;;2.50;;
59960;SDS011;55902;-37.980;-63.602;2022-10-16T16:37:29;9.95;;;4.00;;
59960;SDS011;55902;-37.980;-63.602;2022-10-16T16:39:56;5.13;;;2.20;;
59960;SDS011;55902;-37.980;-63.602;2022-10-16T16:42:25;4.07;;;2.30;;
59960;SDS011;55902;-37.980;-63.602;2022-10-16T16:44:54;7.75;;;2.60;;
59960;SDS011;55902;-37.980;-63.602;2022-10-16T16:47:21;3.22;;;1.70;;
59960;SDS011;55902;-37.980;-63.602;2022-10-16T16:49:48;5.80;;;1.83;;
59960;SDS011;55902;-37.980;-63.602;2022-10-16T16:52:16;7.07;;;1.50;;
59960;SDS011;55902;-37.980;-63.602;2022-10-16T16:54:43;5.40;;;1.80;;
59960;SDS011;55902;-37.980;-63.602;2022-10-16T16:57:17;2.85;;;1.38;;
59960;SDS011;55902;-37.980;-63.602;2022-10-16T16:59:45;4.50;;;1.65;;
59960;SDS011;55902;-37.980;-63.602;2022-10-16T17:02:12;4.53;;;1.83;;
59960;SDS011;55902;-37.980;-63.602;2022-10-16T17:04:39;5.88;;;2.00;;
59960;SDS011;55902;-37.980;-63.602;2022-10-16T17:07:06;4.57;;;2.00;;
59960;SDS011;55902;-37.980;-63.602;2022-10-16T17:09:33;3.90;;;1.33;;
59960;SDS011;55902;-37.980;-63.602;2022-10-16T17:12:00;5.03;;;1.50;;
59960;SDS011;55902;-37.980;-63.602;2022-10-16T17:14:27;4.65;;;1.50;;